Pagina principale
METAR-TAF:

METAR-TAF

Aeroporti :

Aeroporto di Parma

Parma, Italia

latitudine: 44-49-17N, longitudine: 010-17-41E, altezza: 50 m

Osservazione

Il bollettino è stato emesso 1 ora e 0 minuti fa, alle 16:50 UTC
Vento 2 kt da direzioni variabili
Temperature 4°C
Umidità 100%
Pressione 1018 hPa
Visibilità: 4000 m
foschia

METAR: LIMP 201650Z VRB02KT 4000 BR NSC 04/04 Q1018

Ora: 18:50 (17:50 UTC)

Previsione

Il bollettino è stato emesso 50 minuti fa, alle 17:00 UTC
Previsione valida dal 20 alle 18 UTC al 21 alle 18 UTC
Vento 5 kt da direzioni variabili
Visibilità: 3000 m
Nuvoloso ad un'altezza di 1000 ft
foschia
Temporaneamente
dal 20 alle 20 UTC al 21 alle 08 UTC
Visibilità: 0300 m
Nuvoloso ad un'altezza di 400 ft
nebbia
Evoluzione graduale
dal 21 alle 10 UTC al 21 alle 12 UTC
Visibilità: 6000 m

TAF: LIMP 201700Z 2018/2118 VRB05KT 3000 BR BKN010 TEMPO 2020/2108 0300 FG BKN004 BECMG 2110/2112 6000

Osservazioni e previsioni meteorologiche di più di 4000 aeroporti (messaggi METAR e TAF).

Le stazioni disponibili sono rappresentate dai dischi gialli e rossi sulla carta.

Puntare il mouse per vedere il nome della stazione.

Clicca sopra per visualizzare le osservazioni e previsioni meteorologiche.

Per cambiare la mappa : fare clic sui pulsanti verdi con una croce nera per ingrandire, il pulsante verde con un trattino per diminuire, o sulla freccia verde per le mappe adiacenti.


METAR-TAF: